createdAt,value
2022-12-03T00:02:19.835Z,18.10
2022-12-03T00:05:22.548Z,18.77
2022-12-03T00:08:25.094Z,18.25
2022-12-03T00:11:27.776Z,18.52
2022-12-03T00:14:30.306Z,18.05
2022-12-03T00:17:33.013Z,18.85
2022-12-03T00:20:35.767Z,18.43
2022-12-03T00:23:42.085Z,18.63
2022-12-03T00:26:46.166Z,19.17
2022-12-03T00:29:48.629Z,18.35
2022-12-03T00:32:51.059Z,18.17
2022-12-03T00:35:54.551Z,18.27
2022-12-03T00:38:57.126Z,17.88
2022-12-03T00:41:59.779Z,18.85
2022-12-03T00:45:02.675Z,18.13
2022-12-03T00:48:06.938Z,17.83
2022-12-03T00:51:09.493Z,17.57
2022-12-03T00:54:12.156Z,18.13
2022-12-03T00:57:14.809Z,18.35
2022-12-03T01:00:18.011Z,18.75
2022-12-03T01:03:20.593Z,19.80
2022-12-03T01:06:23.280Z,20.00
2022-12-03T01:09:25.801Z,22.00
2022-12-03T01:12:28.315Z,20.08
2022-12-03T01:15:30.934Z,19.63
2022-12-03T01:18:33.856Z,20.15
2022-12-03T01:21:37.965Z,21.03
2022-12-03T01:24:40.451Z,19.33
2022-12-03T01:27:42.863Z,21.35
2022-12-03T01:31:04.527Z,20.17
2022-12-03T01:34:07.065Z,20.85
2022-12-03T01:37:09.789Z,20.77
2022-12-03T01:40:16.086Z,19.80
2022-12-03T01:43:18.646Z,19.45
2022-12-03T01:46:30.545Z,19.58
2022-12-03T01:50:08.668Z,19.30
2022-12-03T01:53:15.789Z,18.93
2022-12-03T01:56:18.980Z,19.48
2022-12-03T01:59:29.273Z,18.90
2022-12-03T02:02:32.985Z,19.23
2022-12-03T02:05:36.934Z,20.77
2022-12-03T02:08:40.994Z,20.07
2022-12-03T02:11:49.658Z,20.15
2022-12-03T02:14:53.167Z,20.20
2022-12-03T02:17:56.123Z,18.73
2022-12-03T02:21:09.328Z,19.05
2022-12-03T02:24:16.576Z,18.93
2022-12-03T02:27:19.741Z,18.58
2022-12-03T02:30:24.437Z,18.20
2022-12-03T02:33:27.190Z,18.00
2022-12-03T02:36:29.797Z,18.63
2022-12-03T02:39:37.393Z,18.23
2022-12-03T02:42:40.081Z,18.90
2022-12-03T02:45:52.662Z,20.95
2022-12-03T02:48:55.376Z,19.90
2022-12-03T02:51:58.171Z,19.92
2022-12-03T02:55:02.564Z,19.07
2022-12-03T02:58:07.778Z,18.60
2022-12-03T03:01:11.039Z,19.30
2022-12-03T03:04:14.012Z,18.77
2022-12-03T03:07:18.994Z,18.85
2022-12-03T03:10:23.635Z,17.87
2022-12-03T03:13:26.443Z,18.67
2022-12-03T03:16:29.034Z,18.25
2022-12-03T03:19:33.027Z,17.48
2022-12-03T03:22:38.741Z,18.65
2022-12-03T03:25:44.649Z,17.83
2022-12-03T03:28:50.232Z,16.63
2022-12-03T03:31:52.846Z,16.77
2022-12-03T03:34:56.682Z,17.45
2022-12-03T03:38:01.042Z,17.73
2022-12-03T03:41:06.065Z,17.13
2022-12-03T03:44:09.504Z,17.30
2022-12-03T03:47:12.597Z,17.52
2022-12-03T03:50:16.209Z,17.40
2022-12-03T03:53:19.716Z,17.77
2022-12-03T03:56:24.349Z,16.67
2022-12-03T03:59:29.065Z,17.25
2022-12-03T04:02:32.881Z,18.95
2022-12-03T04:05:35.545Z,17.95
2022-12-03T04:08:38.356Z,17.83
2022-12-03T04:11:59.993Z,17.17
2022-12-03T04:15:02.517Z,17.42
2022-12-03T04:18:24.542Z,16.85
2022-12-03T04:21:46.053Z,16.65
2022-12-03T04:24:48.679Z,16.35
2022-12-03T04:28:09.635Z,16.63
2022-12-03T04:31:30.968Z,16.20
2022-12-03T04:34:52.720Z,17.15
2022-12-03T04:37:55.558Z,17.33
2022-12-03T04:41:01.410Z,17.33
2022-12-03T04:44:22.663Z,17.63
2022-12-03T04:47:25.404Z,16.88
2022-12-03T04:50:28.279Z,16.98
2022-12-03T04:53:31.017Z,16.23
2022-12-03T04:56:33.589Z,17.40
2022-12-03T04:59:36.858Z,16.10
2022-12-03T05:02:39.556Z,16.55
2022-12-03T05:05:42.147Z,18.80
2022-12-03T05:08:44.936Z,17.88
2022-12-03T05:11:47.498Z,18.63
2022-12-03T05:14:50.028Z,17.67
2022-12-03T05:17:52.517Z,19.30
2022-12-03T05:20:55.139Z,18.15
2022-12-03T05:23:57.768Z,17.80
2022-12-03T05:27:00.244Z,17.90
2022-12-03T05:30:03.459Z,18.00
2022-12-03T05:33:06.384Z,18.00
2022-12-03T05:36:09.208Z,17.83
2022-12-03T05:39:11.732Z,17.60
2022-12-03T05:42:32.782Z,17.10
2022-12-03T05:45:40.596Z,17.73
2022-12-03T05:48:48.457Z,17.98
2022-12-03T05:51:56.701Z,17.70
2022-12-03T05:55:01.247Z,17.35
2022-12-03T05:58:05.740Z,17.35
2022-12-03T06:01:09.886Z,18.90
2022-12-03T06:04:12.562Z,18.77
2022-12-03T06:07:16.469Z,20.25
2022-12-03T06:10:22.547Z,22.77
2022-12-03T06:13:25.425Z,21.25
2022-12-03T06:16:28.085Z,18.37
2022-12-03T06:19:31.035Z,18.00
2022-12-03T06:22:33.601Z,19.10
2022-12-03T06:25:36.519Z,17.48
2022-12-03T06:28:39.086Z,18.83
2022-12-03T06:31:42.104Z,18.60
2022-12-03T06:34:45.869Z,17.92
2022-12-03T06:37:49.381Z,17.65
2022-12-03T06:40:51.899Z,17.52
2022-12-03T06:43:54.885Z,19.95
2022-12-03T06:46:57.467Z,18.43
2022-12-03T06:50:00.095Z,17.33
2022-12-03T06:53:02.723Z,19.10
2022-12-03T06:56:05.553Z,17.83
2022-12-03T06:59:08.273Z,18.33
2022-12-03T07:02:12.865Z,18.07
2022-12-03T07:05:15.470Z,19.05
2022-12-03T07:08:18.097Z,18.58
2022-12-03T07:11:33.131Z,18.27
2022-12-03T07:14:35.695Z,18.63
2022-12-03T07:17:38.144Z,19.07
2022-12-03T07:20:40.866Z,19.17
2022-12-03T07:23:58.548Z,19.35
2022-12-03T07:27:01.437Z,19.38
2022-12-03T07:30:05.519Z,19.40
2022-12-03T07:33:08.041Z,18.63
2022-12-03T07:36:10.762Z,19.80
2022-12-03T07:39:14.021Z,19.17
2022-12-03T07:42:16.822Z,19.42
2022-12-03T07:45:20.561Z,18.55
2022-12-03T07:48:23.095Z,19.17
2022-12-03T07:51:31.947Z,18.60
2022-12-03T07:54:35.367Z,18.52
2022-12-03T07:57:37.856Z,18.77
2022-12-03T08:00:41.641Z,19.10
2022-12-03T08:03:44.152Z,19.17
2022-12-03T08:06:47.047Z,18.65
2022-12-03T08:09:50.487Z,19.45
2022-12-03T08:12:53.876Z,17.90
2022-12-03T08:16:01.120Z,19.65
2022-12-03T08:19:09.350Z,18.23
2022-12-03T08:22:14.078Z,18.10
2022-12-03T08:25:22.784Z,18.50
2022-12-03T08:28:27.195Z,18.63
2022-12-03T08:31:33.687Z,18.38
2022-12-03T08:34:41.075Z,19.07
2022-12-03T08:37:45.871Z,18.10
2022-12-03T08:40:51.213Z,18.20
2022-12-03T08:43:53.734Z,18.05
2022-12-03T08:47:10.602Z,19.13
2022-12-03T08:50:42.725Z,17.83
2022-12-03T08:53:49.199Z,18.30
2022-12-03T08:56:51.757Z,19.05
2022-12-03T09:00:17.099Z,18.13
2022-12-03T09:03:20.140Z,19.02
2022-12-03T09:06:23.219Z,18.60
2022-12-03T09:09:26.609Z,19.10
2022-12-03T09:12:29.063Z,19.00
2022-12-03T09:15:31.596Z,18.50
2022-12-03T09:18:34.408Z,18.67
2022-12-03T09:21:36.848Z,18.63
2022-12-03T09:24:39.326Z,18.25
2022-12-03T09:27:41.954Z,18.10
2022-12-03T09:30:44.702Z,17.92
2022-12-03T09:33:47.264Z,19.02
2022-12-03T09:36:49.861Z,17.90
2022-12-03T09:39:52.410Z,18.05
2022-12-03T09:42:58.677Z,18.75
2022-12-03T09:46:01.654Z,18.55
2022-12-03T09:49:10.942Z,17.58
2022-12-03T09:52:31.593Z,17.73
2022-12-03T09:55:35.288Z,18.05
2022-12-03T09:58:39.147Z,17.98
2022-12-03T10:01:42.316Z,17.50
2022-12-03T10:04:44.980Z,17.90
2022-12-03T10:07:50.765Z,17.37
2022-12-03T10:10:56.740Z,17.52
2022-12-03T10:13:59.256Z,17.60
2022-12-03T10:17:01.852Z,17.73
2022-12-03T10:20:04.988Z,17.88
2022-12-03T10:23:07.753Z,17.23
2022-12-03T10:26:13.940Z,17.02
2022-12-03T10:29:31.337Z,18.20
2022-12-03T10:32:47.763Z,17.10
2022-12-03T10:35:50.233Z,17.40
2022-12-03T10:39:12.635Z,17.30
2022-12-03T10:42:18.685Z,17.33
2022-12-03T10:45:23.484Z,17.45
2022-12-03T10:48:27.539Z,16.90
2022-12-03T10:51:31.014Z,16.88
2022-12-03T10:54:35.461Z,16.77
2022-12-03T10:57:42.373Z,17.08
2022-12-03T11:00:48.499Z,17.23
2022-12-03T11:03:53.107Z,15.93
2022-12-03T11:06:55.695Z,16.27
2022-12-03T11:09:59.160Z,15.70
2022-12-03T11:13:29.803Z,16.63
2022-12-03T11:16:41.440Z,17.08
2022-12-03T11:19:47.037Z,16.45
2022-12-03T11:23:04.009Z,16.83
2022-12-03T11:26:07.015Z,15.77
2022-12-03T11:29:14.509Z,15.57
2022-12-03T11:32:38.672Z,15.85
2022-12-03T11:36:03.871Z,14.90
2022-12-03T11:39:08.570Z,16.05
2022-12-03T11:42:25.945Z,15.10
2022-12-03T11:45:31.867Z,14.85
2022-12-03T11:48:43.064Z,15.27
2022-12-03T11:51:45.782Z,15.63
2022-12-03T11:54:52.660Z,15.02
2022-12-03T11:58:04.207Z,15.20
2022-12-03T12:01:08.074Z,15.38
2022-12-03T12:04:31.151Z,15.35
2022-12-03T12:07:37.119Z,15.00
2022-12-03T12:10:49.306Z,14.52
2022-12-03T12:13:54.641Z,14.07
2022-12-03T12:16:58.565Z,14.73
2022-12-03T12:20:13.167Z,13.82
2022-12-03T12:23:29.362Z,14.32
2022-12-03T12:26:31.804Z,14.65
2022-12-03T12:29:36.133Z,14.37
2022-12-03T12:32:47.454Z,14.32
2022-12-03T12:35:51.195Z,14.13
2022-12-03T12:38:53.707Z,14.13
2022-12-03T12:41:56.248Z,13.68
2022-12-03T12:45:20.548Z,13.97
2022-12-03T12:48:26.194Z,14.07
2022-12-03T12:51:29.186Z,14.93
2022-12-03T12:54:31.807Z,14.18
2022-12-03T12:57:34.424Z,14.55
2022-12-03T13:00:37.463Z,14.63
2022-12-03T13:03:40.312Z,13.80
2022-12-03T13:06:43.733Z,14.18
2022-12-03T13:09:46.302Z,14.30
2022-12-03T13:12:49.039Z,13.85
2022-12-03T13:15:59.898Z,13.77
2022-12-03T13:19:03.094Z,14.07
2022-12-03T13:22:19.323Z,14.13
2022-12-03T13:25:59.211Z,13.55
2022-12-03T13:29:06.301Z,14.65
2022-12-03T13:32:16.188Z,14.13
2022-12-03T13:35:31.690Z,13.73
2022-12-03T13:38:34.257Z,13.82
2022-12-03T13:41:56.593Z,13.57
2022-12-03T13:45:01.308Z,13.88
2022-12-03T13:48:29.058Z,13.50
2022-12-03T13:51:35.279Z,12.70
2022-12-03T13:54:39.424Z,13.40
2022-12-03T13:57:41.985Z,13.32
2022-12-03T14:00:45.332Z,13.73
2022-12-03T14:03:49.003Z,12.47
2022-12-03T14:06:51.446Z,12.75
2022-12-03T14:09:54.246Z,13.27
2022-12-03T14:12:57.122Z,13.45
2022-12-03T14:16:00.615Z,14.32
2022-12-03T14:19:03.204Z,13.67
2022-12-03T14:22:08.092Z,13.88
2022-12-03T14:25:11.244Z,13.85
2022-12-03T14:28:13.734Z,14.02
2022-12-03T14:31:16.325Z,14.55
2022-12-03T14:34:18.912Z,13.93
2022-12-03T14:37:21.385Z,14.52
2022-12-03T14:40:24.025Z,14.82
2022-12-03T14:43:26.471Z,14.60
2022-12-03T14:46:29.045Z,15.25
2022-12-03T14:49:31.581Z,16.07
2022-12-03T14:52:35.307Z,14.57
2022-12-03T14:55:37.836Z,15.73
2022-12-03T14:58:40.707Z,14.93
2022-12-03T15:01:43.957Z,14.98
2022-12-03T15:04:46.533Z,15.73
2022-12-03T15:07:50.724Z,15.27
2022-12-03T15:10:53.323Z,15.45
2022-12-03T15:13:55.915Z,15.85
2022-12-03T15:16:58.475Z,17.33
2022-12-03T15:20:01.128Z,17.03
2022-12-03T15:23:03.643Z,17.70
2022-12-03T15:26:06.897Z,17.42
2022-12-03T15:29:09.752Z,17.08
2022-12-03T15:32:12.248Z,18.10
2022-12-03T15:35:18.606Z,18.73
2022-12-03T15:38:21.430Z,18.90
2022-12-03T15:41:29.016Z,18.92
2022-12-03T15:44:31.547Z,18.85
2022-12-03T15:47:34.097Z,18.35
2022-12-03T15:50:40.077Z,17.10
2022-12-03T15:53:43.040Z,17.67
2022-12-03T15:56:45.638Z,19.88
2022-12-03T15:59:48.112Z,20.70
2022-12-03T16:02:53.307Z,21.15
2022-12-03T16:05:56.388Z,21.63
2022-12-03T16:08:58.895Z,19.92
2022-12-03T16:12:02.078Z,20.67
2022-12-03T16:15:05.144Z,20.05
2022-12-03T16:18:08.018Z,22.60
2022-12-03T16:21:10.551Z,24.53
2022-12-03T16:24:13.160Z,25.40
2022-12-03T16:27:15.621Z,24.35
2022-12-03T16:30:18.889Z,24.30
2022-12-03T16:33:27.324Z,24.60
2022-12-03T16:36:31.307Z,23.30
2022-12-03T16:39:34.298Z,23.17
2022-12-03T16:42:37.795Z,23.20
2022-12-03T16:45:46.317Z,22.65
2022-12-03T16:48:49.097Z,23.27
2022-12-03T16:51:51.978Z,21.37
2022-12-03T16:54:54.608Z,22.20
2022-12-03T16:57:57.130Z,21.50
2022-12-03T17:00:59.900Z,23.17
2022-12-03T17:04:03.161Z,23.05
2022-12-03T17:07:08.131Z,21.97
2022-12-03T17:10:11.305Z,22.27
2022-12-03T17:13:13.952Z,22.65
2022-12-03T17:16:16.627Z,22.40
2022-12-03T17:19:21.797Z,22.20
2022-12-03T17:22:24.843Z,21.87
2022-12-03T17:25:28.999Z,22.17
2022-12-03T17:28:32.265Z,22.45
2022-12-03T17:31:41.579Z,22.90
2022-12-03T17:34:45.089Z,22.10
2022-12-03T17:37:47.597Z,22.60
2022-12-03T17:40:50.428Z,21.75
2022-12-03T17:43:53.965Z,22.92
2022-12-03T17:46:56.489Z,22.63
2022-12-03T17:49:59.643Z,22.50
2022-12-03T17:53:05.450Z,23.43
2022-12-03T17:56:08.092Z,22.85
2022-12-03T17:59:12.264Z,23.55
2022-12-03T18:02:15.972Z,23.35
2022-12-03T18:05:19.458Z,22.83
2022-12-03T18:08:22.403Z,22.73
2022-12-03T18:11:25.247Z,24.33
2022-12-03T18:14:28.488Z,24.15
2022-12-03T18:17:31.168Z,23.23
2022-12-03T18:20:33.812Z,24.48
2022-12-03T18:23:36.509Z,23.27
2022-12-03T18:26:39.738Z,23.63
2022-12-03T18:29:42.364Z,23.92
2022-12-03T18:32:44.973Z,25.25
2022-12-03T18:35:48.279Z,24.40
2022-12-03T18:38:55.689Z,25.03
2022-12-03T18:41:58.762Z,24.27
2022-12-03T18:45:01.870Z,25.77
2022-12-03T18:48:13.928Z,25.35
2022-12-03T18:51:20.114Z,25.55
2022-12-03T18:54:22.682Z,25.57
2022-12-03T18:57:25.265Z,25.92
2022-12-03T19:00:28.581Z,26.88
2022-12-03T19:03:32.767Z,26.08
2022-12-03T19:06:35.697Z,27.00
2022-12-03T19:09:39.630Z,27.20
2022-12-03T19:12:43.212Z,26.50
2022-12-03T19:15:46.854Z,26.17
2022-12-03T19:18:50.216Z,27.67
2022-12-03T19:21:54.208Z,26.70
2022-12-03T19:24:57.081Z,26.50
2022-12-03T19:27:59.904Z,25.85
2022-12-03T19:31:06.134Z,27.85
2022-12-03T19:34:09.515Z,27.35
2022-12-03T19:37:13.005Z,29.02
2022-12-03T19:40:19.287Z,29.33
2022-12-03T19:43:22.771Z,29.75
2022-12-03T19:46:31.750Z,31.00
2022-12-03T19:49:34.771Z,30.25
2022-12-03T19:52:39.767Z,31.30
2022-12-03T19:55:43.714Z,31.07
2022-12-03T19:58:48.358Z,30.42
2022-12-03T20:01:52.219Z,30.23
2022-12-03T20:04:55.281Z,32.42
2022-12-03T20:07:58.826Z,31.58
2022-12-03T20:11:36.201Z,31.37
2022-12-03T20:14:39.254Z,32.28
2022-12-03T20:17:41.768Z,33.17
2022-12-03T20:20:44.691Z,33.22
2022-12-03T20:23:50.400Z,34.13
2022-12-03T20:26:53.788Z,33.97
2022-12-03T20:29:57.444Z,33.08
2022-12-03T20:33:01.012Z,35.38
2022-12-03T20:36:05.049Z,35.17
2022-12-03T20:39:08.691Z,34.90
2022-12-03T20:42:11.829Z,35.23
2022-12-03T20:45:17.316Z,34.72
2022-12-03T20:48:20.571Z,35.25
2022-12-03T20:51:26.704Z,36.78
2022-12-03T20:54:29.781Z,37.00
2022-12-03T20:57:32.805Z,37.33
2022-12-03T21:00:35.701Z,37.05
2022-12-03T21:03:41.859Z,37.70
2022-12-03T21:06:45.943Z,36.78
2022-12-03T21:09:48.719Z,38.72
2022-12-03T21:12:51.407Z,38.10
2022-12-03T21:16:03.886Z,40.33
2022-12-03T21:19:07.903Z,39.15
2022-12-03T21:22:10.497Z,39.83
2022-12-03T21:25:16.637Z,42.20
2022-12-03T21:28:19.580Z,41.03
2022-12-03T21:31:26.072Z,42.50
2022-12-03T21:34:34.375Z,42.92
2022-12-03T21:37:40.058Z,42.25
2022-12-03T21:40:42.698Z,41.33
2022-12-03T21:43:45.309Z,42.73
2022-12-03T21:47:12.530Z,40.97
2022-12-03T21:50:11.631Z,42.78
2022-12-03T21:53:14.175Z,43.60
2022-12-03T21:56:18.824Z,43.88
2022-12-03T21:59:21.671Z,43.07
2022-12-03T22:02:24.453Z,44.00
2022-12-03T22:05:26.969Z,44.88
2022-12-03T22:08:30.035Z,44.65
2022-12-03T22:11:32.645Z,46.28
2022-12-03T22:14:35.265Z,46.10
2022-12-03T22:17:38.013Z,45.35
2022-12-03T22:20:42.423Z,45.63
2022-12-03T22:23:46.226Z,44.58
2022-12-03T22:26:48.750Z,44.97
2022-12-03T22:29:51.256Z,45.77
2022-12-03T22:32:53.719Z,47.97
2022-12-03T22:35:57.148Z,49.88
2022-12-03T22:39:00.166Z,48.95
2022-12-03T22:42:02.777Z,47.83
2022-12-03T22:45:06.034Z,46.97
2022-12-03T22:48:08.635Z,48.92
2022-12-03T22:51:20.074Z,47.58
2022-12-03T22:54:26.350Z,46.70
2022-12-03T22:57:28.857Z,48.72
2022-12-03T23:00:35.254Z,48.47
2022-12-03T23:03:37.816Z,47.70
2022-12-03T23:06:40.939Z,50.67
2022-12-03T23:09:43.609Z,50.75
2022-12-03T23:12:47.212Z,51.03
2022-12-03T23:15:52.112Z,49.83
2022-12-03T23:18:57.074Z,49.97
2022-12-03T23:21:59.830Z,49.63
2022-12-03T23:25:02.321Z,49.28
2022-12-03T23:28:05.645Z,51.10
2022-12-03T23:31:19.929Z,48.27
2022-12-03T23:34:22.772Z,49.75
2022-12-03T23:37:25.686Z,49.47
2022-12-03T23:40:28.246Z,49.60
2022-12-03T23:43:31.078Z,49.42
2022-12-03T23:46:35.375Z,50.30
2022-12-03T23:49:38.261Z,49.78
2022-12-03T23:52:40.874Z,48.15
2022-12-03T23:55:43.336Z,47.70
2022-12-03T23:58:46.470Z,49.63
